Alanreed, Texas
Current Conditions -  °F | °C
As of 4:35 PM on Friday 19 Dec 2014 (Local Time) from KPPA Reporting Station
Overcast Overcast  
Wind Chill: 36°   Ceiling: 1200
Heat Index: 40°   Visibility: 10mi
Dew Point: 36°   Wind: 6mph
Humidity: 83%   Direction: 240°WSW
Pressure: 30.13"   Gusts: NA
Location:  35.21°N, 100.74°W
Report Text: KPPA 192235Z AUTO 24005KT 10SM OVC012 05/02 A3013 RMK AO2 T00470021 PNO
Loading
Personal Weather Stations






























Interactive Weather Map New forecast layout! Learn more

10-Day Weather Forecast

Advertisements
Track Severe Weather on mobile